Time;durP1;ratioP1;P1;durP2;ratioP2;P2;SDS_P1;SDS_P2;PMS_P1;PMS_P2;Temp;Humidity;BMP_temperature;BMP_pressure;BME280_temperature;BME280_humidity;BME280_pressure;Samples;Min_cycle;Max_cycle;Signal;HPM_P1;HPM_P2
2023/01/11 00:00:34;;;;;;;9.10;7.80;;;8.20;99.90;;;;;;5089949;28;20572;-68
2023/01/11 00:03:02;;;;;;;9.32;8.43;;;8.20;99.90;;;;;;5089879;28;20044;-68
2023/01/11 00:05:28;;;;;;;9.27;8.38;;;8.20;99.90;;;;;;5083285;28;20044;-71
2023/01/11 00:07:54;;;;;;;8.48;7.68;;;8.20;99.90;;;;;;5089618;28;20123;-71
2023/01/11 00:10:20;;;;;;;9.10;8.20;;;8.10;99.90;;;;;;5086206;28;20410;-71
2023/01/11 00:12:46;;;;;;;8.70;7.80;;;8.30;99.90;;;;;;5086714;28;20046;-71
2023/01/11 00:15:12;;;;;;;8.20;7.40;;;8.30;99.90;;;;;;5089785;28;20521;-71
2023/01/11 00:17:38;;;;;;;10.82;7.97;;;8.40;99.90;;;;;;5108058;28;20392;-71
2023/01/11 00:20:05;;;;;;;10.43;8.27;;;8.40;99.90;;;;;;5083997;28;20344;-71
2023/01/11 00:22:31;;;;;;;8.77;7.88;;;8.40;99.90;;;;;;5092673;28;20032;-71
2023/01/11 00:24:56;;;;;;;8.80;7.90;;;8.40;99.90;;;;;;5092681;28;20262;-71
2023/01/11 00:27:22;;;;;;;9.95;8.85;;;8.40;99.90;;;;;;5091601;28;20380;-71
2023/01/11 00:29:47;;;;;;;9.50;8.50;;;8.50;99.90;;;;;;5088439;28;20036;-71
2023/01/11 00:32:13;;;;;;;9.23;8.27;;;8.50;99.90;;;;;;5089857;28;20120;-71
2023/01/11 00:34:38;;;;;;;9.05;8.15;;;8.50;99.90;;;;;;5078663;28;20828;-71
2023/01/11 00:37:04;;;;;;;9.63;8.73;;;8.50;99.90;;;;;;5086357;28;20392;-71
2023/01/11 00:39:30;;;;;;;9.45;8.55;;;8.50;99.90;;;;;;5085798;28;20051;-71
2023/01/11 00:50:09;;;;;;;8.98;7.93;;;8.60;99.90;;;;;;5082499;28;20053;-71
2023/01/11 00:52:35;;;;;;;8.68;7.57;;;8.60;99.90;;;;;;5088389;28;20040;-71
2023/01/11 00:55:00;;;;;;;8.25;7.53;;;8.60;99.90;;;;;;5079203;28;20051;-71
2023/01/11 00:57:26;;;;;;;9.48;7.70;;;8.70;99.90;;;;;;5079340;28;20106;-71
2023/01/11 00:59:51;;;;;;;8.10;7.28;;;8.70;99.90;;;;;;5091586;28;20137;-71
2023/01/11 01:02:17;;;;;;;8.68;7.20;;;8.70;99.90;;;;;;5078963;28;20494;-71
2023/01/11 01:04:43;;;;;;;8.25;7.45;;;8.70;99.90;;;;;;5084251;28;20051;-71
2023/01/11 01:07:10;;;;;;;8.63;7.35;;;8.80;99.90;;;;;;5091486;28;20092;-71
2023/01/11 01:09:36;;;;;;;8.60;7.40;;;8.70;99.90;;;;;;5092099;28;20051;-71
2023/01/11 01:12:02;;;;;;;8.18;7.25;;;8.70;99.90;;;;;;5096508;28;20040;-71
2023/01/11 01:14:28;;;;;;;7.97;7.18;;;8.80;99.90;;;;;;5088061;28;20028;-69
2023/01/11 01:16:57;;;;;;;8.43;7.20;;;8.80;99.90;;;;;;5091640;28;20043;-69
2023/01/11 01:19:23;;;;;;;8.07;7.28;;;8.80;99.90;;;;;;5090688;28;20043;-69
2023/01/11 01:21:49;;;;;;;8.02;7.22;;;8.80;99.90;;;;;;5087139;28;20032;-69
2023/01/11 01:24:15;;;;;;;7.95;7.15;;;8.80;99.90;;;;;;5087725;28;20051;-69
2023/01/11 01:26:41;;;;;;;7.72;7.00;;;8.80;99.90;;;;;;5080965;28;20055;-68
2023/01/11 01:29:06;;;;;;;8.18;7.30;;;8.80;99.90;;;;;;5091729;28;20040;-69
2023/01/11 01:31:32;;;;;;;9.85;7.40;;;8.80;99.90;;;;;;5083296;28;20123;-69
2023/01/11 01:33:58;;;;;;;9.35;7.22;;;8.90;99.90;;;;;;5089842;28;20028;-69
2023/01/11 01:36:24;;;;;;;8.02;6.93;;;8.90;99.90;;;;;;5089609;28;20040;-69
2023/01/11 01:38:49;;;;;;;8.30;7.50;;;8.90;99.90;;;;;;5081538;28;20044;-69
2023/01/11 01:41:15;;;;;;;8.23;6.75;;;9.00;99.90;;;;;;5091747;28;20156;-69
2023/01/11 01:43:50;;;;;;;7.80;6.93;;;8.90;99.90;;;;;;5085976;28;20476;-69
2023/01/11 01:46:18;;;;;;;10.20;7.60;;;9.00;99.90;;;;;;5088427;28;20072;-69
2023/01/11 01:49:11;;;;;;;8.20;7.40;;;8.90;99.90;;;;;;5086934;28;20063;-69
2023/01/11 01:51:50;;;;;;;7.93;7.18;;;8.90;99.90;;;;;;5077473;28;20105;-69
2023/01/11 01:54:21;;;;;;;8.85;7.95;;;9.00;99.90;;;;;;5086661;28;20052;-71
2023/01/11 01:56:54;;;;;;;9.45;8.00;;;9.10;99.90;;;;;;5086065;28;20071;-71
2023/01/11 01:59:21;;;;;;;9.73;8.40;;;9.00;99.90;;;;;;5095213;28;20089;-72
2023/01/11 02:01:48;;;;;;;9.63;8.38;;;9.00;99.90;;;;;;5091008;28;20115;-72
2023/01/11 02:04:19;;;;;;;11.98;8.57;;;9.10;99.90;;;;;;5077280;28;20116;-72
2023/01/11 02:06:45;;;;;;;9.88;8.85;;;9.00;99.90;;;;;;5086707;28;20053;-71
2023/01/11 02:09:20;;;;;;;9.68;8.77;;;9.00;99.90;;;;;;5079997;28;20041;-71
2023/01/11 02:11:46;;;;;;;10.15;8.98;;;9.00;99.90;;;;;;5084477;28;20098;-72
2023/01/11 02:14:16;;;;;;;10.15;9.15;;;9.10;99.90;;;;;;5088075;28;20514;-71
2023/01/11 02:16:41;;;;;;;10.13;9.02;;;9.10;99.90;;;;;;5083956;28;20040;-72
2023/01/11 02:19:32;;;;;;;9.60;8.65;;;9.10;99.90;;;;;;5081719;28;20173;-71
2023/01/11 02:22:32;;;;;;;10.27;8.77;;;9.10;99.90;;;;;;5097572;28;20099;-69
2023/01/11 02:25:15;;;;;;;10.60;9.05;;;9.10;99.90;;;;;;5084011;28;20055;-69
2023/01/11 02:28:02;;;;;;;9.52;8.60;;;9.10;99.90;;;;;;5099883;28;20040;-69
2023/01/11 02:30:31;;;;;;;11.10;8.10;;;9.10;99.90;;;;;;5088228;28;20077;-69
2023/01/11 02:33:07;;;;;;;9.32;8.32;;;9.10;99.90;;;;;;5089265;28;20047;-69
2023/01/11 02:36:17;;;;;;;9.43;8.52;;;9.10;99.90;;;;;;5084054;28;20043;-69
2023/01/11 02:38:49;;;;;;;9.50;7.95;;;9.10;99.90;;;;;;5073764;28;20506;-69
2023/01/11 02:41:25;;;;;;;9.63;8.63;;;9.10;99.90;;;;;;5077583;28;20122;-69
2023/01/11 02:47:03;;;;;;;9.13;7.70;;;9.20;99.90;;;;;;5088304;28;20040;-69
2023/01/11 02:49:43;;;;;;;9.90;8.13;;;9.10;99.90;;;;;;5084725;28;20033;-69
2023/01/11 02:52:20;;;;;;;8.63;7.72;;;9.20;99.90;;;;;;5074683;28;20059;-69
2023/01/11 02:54:53;;;;;;;8.40;7.50;;;9.10;99.90;;;;;;5080773;28;20598;-70
2023/01/11 02:57:21;;;;;;;8.48;7.05;;;9.20;99.90;;;;;;5082997;28;20044;-69
2023/01/11 02:59:48;;;;;;;9.25;6.60;;;9.30;99.90;;;;;;5088687;28;20390;-70
2023/01/11 03:02:15;;;;;;;;;;;9.30;99.90;;;;;;5083199;28;20196;-69
2023/01/11 03:04:41;;;;;;;8.68;6.60;;;9.30;99.90;;;;;;5081454;28;19923;-69
2023/01/11 03:07:33;;;;;;;7.75;6.20;;;9.30;99.90;;;;;;5088352;28;20040;-69
2023/01/11 03:10:24;;;;;;;6.82;5.80;;;9.30;99.90;;;;;;5087417;28;20131;-69
2023/01/11 03:13:14;;;;;;;8.23;5.88;;;9.30;99.90;;;;;;5083496;28;20093;-70
2023/01/11 03:16:00;;;;;;;9.73;6.50;;;9.40;99.90;;;;;;5083455;28;20801;-69
2023/01/11 03:18:27;;;;;;;7.07;6.37;;;9.40;99.90;;;;;;5094485;28;20052;-70
2023/01/11 03:21:09;;;;;;;7.13;6.25;;;9.30;99.90;;;;;;5085712;28;20505;-69
2023/01/11 03:23:58;;;;;;;7.85;6.28;;;9.40;99.90;;;;;;5084832;28;20044;-70
2023/01/11 03:26:40;;;;;;;7.57;6.60;;;9.40;99.90;;;;;;5089147;28;20054;-70
2023/01/11 03:29:28;;;;;;;6.85;5.95;;;9.50;99.90;;;;;;5100847;28;20487;-70
2023/01/11 03:32:23;;;;;;;7.10;6.40;;;9.50;99.90;;;;;;5089572;28;20101;-69
2023/01/11 03:35:04;;;;;;;8.20;6.70;;;9.50;99.90;;;;;;5082137;28;20052;-69
2023/01/11 03:37:33;;;;;;;8.02;6.65;;;9.50;99.90;;;;;;5088159;28;20134;-69
2023/01/11 03:40:09;;;;;;;6.75;5.95;;;9.50;99.90;;;;;;5087785;28;20052;-69
2023/01/11 03:43:09;;;;;;;8.20;6.57;;;9.50;99.90;;;;;;5087522;28;20044;-70
2023/01/11 03:45:29;;;;;;;6.88;6.15;;;9.60;99.90;;;;;;5081477;28;20067;-69
2023/01/11 03:47:58;;;;;;;7.43;6.72;;;9.50;99.90;;;;;;5070928;28;20036;-69
2023/01/11 03:50:26;;;;;;;6.20;5.45;;;9.60;99.90;;;;;;5083565;28;20118;-69
2023/01/11 03:52:54;;;;;;;6.43;5.32;;;9.60;99.90;;;;;;5098771;28;20063;-69
2023/01/11 03:55:25;;;;;;;6.65;4.22;;;9.60;99.90;;;;;;5096292;28;20060;-69
2023/01/11 03:57:53;;;;;;;4.80;4.25;;;9.70;99.90;;;;;;5083975;28;20082;-69
2023/01/11 04:00:21;;;;;;;4.30;3.90;;;9.70;99.90;;;;;;5085544;28;20097;-69
2023/01/11 04:02:48;;;;;;;5.25;4.63;;;9.70;99.90;;;;;;5084632;28;20040;-69
2023/01/11 04:05:14;;;;;;;5.60;3.97;;;9.70;99.90;;;;;;5072622;28;20136;-70
2023/01/11 04:07:40;;;;;;;5.05;4.35;;;9.80;99.90;;;;;;5084660;28;20041;-69
2023/01/11 04:10:06;;;;;;;5.07;4.40;;;9.70;99.90;;;;;;5084831;28;20051;-70
2023/01/11 04:12:32;;;;;;;4.90;4.13;;;9.70;99.90;;;;;;5079898;28;20036;-69
2023/01/11 04:14:58;;;;;;;6.00;4.25;;;9.80;99.90;;;;;;5082918;28;20123;-70
2023/01/11 04:17:23;;;;;;;5.70;4.45;;;9.70;99.90;;;;;;5087928;28;20040;-70
2023/01/11 04:19:49;;;;;;;4.97;4.13;;;9.80;99.90;;;;;;5085017;28;20039;-70
2023/01/11 04:22:14;;;;;;;4.60;4.10;;;9.80;99.90;;;;;;5086170;28;20136;-70
2023/01/11 04:24:40;;;;;;;5.03;4.28;;;9.80;99.90;;;;;;5084103;28;20096;-69
2023/01/11 04:27:06;;;;;;;5.88;4.35;;;9.80;99.90;;;;;;5086685;28;20052;-70
2023/01/11 04:29:31;;;;;;;6.00;4.53;;;9.80;99.90;;;;;;5089610;28;20046;-70
2023/01/11 04:31:57;;;;;;;5.78;4.47;;;9.80;99.90;;;;;;5078867;28;20059;-70
2023/01/11 04:34:22;;;;;;;5.75;4.75;;;9.80;99.90;;;;;;5086059;28;20115;-70
2023/01/11 04:36:48;;;;;;;4.80;4.30;;;9.80;99.90;;;;;;5083899;28;20079;-70
2023/01/11 04:39:14;;;;;;;4.13;3.72;;;9.80;99.90;;;;;;5078693;28;20049;-69
2023/01/11 04:44:24;;;;;;;4.28;3.88;;;9.80;99.90;;;;;;5091525;28;20048;-70
2023/01/11 04:46:50;;;;;;;4.00;3.60;;;9.90;99.90;;;;;;5078549;28;20059;-70
2023/01/11 04:49:15;;;;;;;4.45;3.75;;;9.90;99.90;;;;;;5078435;28;20066;-69
2023/01/11 04:51:41;;;;;;;5.68;4.20;;;9.90;99.90;;;;;;5088153;28;20712;-70
2023/01/11 04:54:06;;;;;;;5.05;4.35;;;9.90;99.90;;;;;;5090110;28;20051;-69
2023/01/11 04:56:32;;;;;;;5.43;4.60;;;10.00;99.90;;;;;;5087916;28;20056;-69
2023/01/11 04:58:58;;;;;;;5.88;4.80;;;10.00;99.90;;;;;;5081845;28;20036;-70
2023/01/11 05:01:24;;;;;;;5.72;4.50;;;9.90;99.90;;;;;;5082287;28;20470;-70
2023/01/11 05:03:50;;;;;;;5.20;4.70;;;10.00;99.90;;;;;;5081898;28;20061;-70
2023/01/11 05:06:18;;;;;;;5.63;4.20;;;10.00;99.90;;;;;;5089979;28;20043;-69
2023/01/11 05:08:45;;;;;;;4.47;4.07;;;10.10;99.90;;;;;;5085666;28;20118;-70
2023/01/11 05:11:11;;;;;;;4.50;4.03;;;10.10;99.90;;;;;;5088699;28;20055;-69
2023/01/11 05:13:42;;;;;;;5.75;4.80;;;10.10;99.90;;;;;;5091022;28;20124;-70
2023/01/11 05:16:16;;;;;;;5.65;4.90;;;10.10;99.90;;;;;;5089292;28;20057;-69
2023/01/11 05:18:44;;;;;;;7.22;5.43;;;10.10;99.90;;;;;;5089308;28;20036;-70
2023/01/11 05:21:12;;;;;;;5.57;4.80;;;10.10;99.90;;;;;;5083917;28;20048;-69
2023/01/11 05:23:39;;;;;;;6.30;5.25;;;10.10;99.90;;;;;;5085976;28;20135;-69
2023/01/11 05:26:12;;;;;;;6.83;5.33;;;10.10;99.90;;;;;;5091189;28;20048;-70
2023/01/11 05:28:38;;;;;;;7.85;5.82;;;10.10;99.90;;;;;;5085612;28;20395;-70
2023/01/11 05:31:04;;;;;;;7.85;5.95;;;10.20;99.90;;;;;;5091679;28;20170;-70
2023/01/11 05:33:30;;;;;;;7.72;6.13;;;10.10;99.90;;;;;;5086390;28;20036;-70
2023/01/11 05:36:00;;;;;;;7.35;6.18;;;10.20;99.90;;;;;;5087416;28;20043;-70
2023/01/11 05:38:27;;;;;;;9.25;6.38;;;10.20;99.90;;;;;;5078417;28;20032;-70
2023/01/11 05:40:58;;;;;;;8.93;7.40;;;10.20;99.90;;;;;;5084994;28;20036;-70
2023/01/11 05:43:24;;;;;;;9.23;6.53;;;10.20;99.90;;;;;;5087826;28;20040;-70
2023/01/11 05:45:50;;;;;;;11.27;7.47;;;10.20;99.90;;;;;;5085343;28;20123;-69
2023/01/11 05:48:16;;;;;;;11.90;7.68;;;10.20;99.90;;;;;;5089358;28;20032;-70
2023/01/11 05:50:41;;;;;;;12.95;7.68;;;10.30;99.90;;;;;;5086991;28;20515;-70
2023/01/11 05:53:07;;;;;;;10.20;7.80;;;10.30;99.90;;;;;;5082486;28;20047;-69
2023/01/11 05:55:33;;;;;;;14.15;7.90;;;10.30;99.90;;;;;;5081404;28;20447;-70
2023/01/11 05:57:59;;;;;;;12.50;8.32;;;10.30;99.90;;;;;;5084132;28;20052;-70
2023/01/11 06:00:24;;;;;;;11.60;7.88;;;10.40;99.90;;;;;;5090233;28;20047;-69
2023/01/11 06:02:50;;;;;;;12.80;8.55;;;10.40;99.90;;;;;;5088313;28;20063;-70
2023/01/11 06:05:16;;;;;;;12.63;8.40;;;10.40;99.90;;;;;;5076187;28;20049;-70
2023/01/11 06:07:42;;;;;;;13.20;8.48;;;10.40;99.90;;;;;;5087466;28;20044;-69
2023/01/11 06:10:08;;;;;;;15.65;8.52;;;10.40;99.90;;;;;;5090104;28;20101;-69
2023/01/11 06:12:34;;;;;;;15.73;9.13;;;10.50;99.90;;;;;;5086195;28;20044;-70
2023/01/11 06:14:59;;;;;;;17.45;9.02;;;10.50;99.90;;;;;;5086243;28;20411;-70
2023/01/11 06:17:25;;;;;;;16.70;10.00;;;10.50;99.90;;;;;;5086794;28;20056;-70
2023/01/11 06:19:51;;;;;;;19.00;9.48;;;10.50;99.90;;;;;;5080235;28;20078;-69
2023/01/11 06:22:16;;;;;;;16.33;8.98;;;10.50;99.90;;;;;;5082591;28;20044;-70
2023/01/11 06:24:42;;;;;;;16.45;9.35;;;10.50;99.90;;;;;;5087044;28;20036;-70
2023/01/11 06:27:07;;;;;;;18.45;8.73;;;10.50;99.90;;;;;;5084112;28;20044;-70
2023/01/11 06:29:33;;;;;;;18.88;8.57;;;10.50;99.90;;;;;;5087064;28;20123;-70
2023/01/11 06:31:59;;;;;;;17.90;9.38;;;10.50;99.90;;;;;;5084047;28;20036;-71
2023/01/11 06:34:24;;;;;;;16.27;8.65;;;10.50;99.90;;;;;;5087727;28;20566;-69
2023/01/11 06:36:50;;;;;;;18.58;9.18;;;10.60;99.90;;;;;;5089097;28;20395;-70
2023/01/11 06:39:16;;;;;;;21.13;9.15;;;10.50;99.90;;;;;;5082132;28;20093;-70
2023/01/11 06:41:41;;;;;;;19.95;8.57;;;10.50;99.90;;;;;;5085318;28;20040;-70
2023/01/11 06:44:07;;;;;;;17.63;8.63;;;10.50;99.90;;;;;;5077360;28;20033;-70
2023/01/11 06:46:32;;;;;;;17.75;7.88;;;10.50;99.90;;;;;;5084177;28;20048;-70
2023/01/11 06:49:00;;;;;;;19.42;7.10;;;10.50;99.90;;;;;;5076084;28;20062;-69
2023/01/11 06:51:25;;;;;;;;;;;10.50;99.90;;;;;;5097937;28;20178;-70
2023/01/11 06:53:51;;;;;;;23.15;7.63;;;10.50;99.90;;;;;;5086282;28;20011;-70
2023/01/11 06:56:17;;;;;;;19.20;6.82;;;10.40;99.90;;;;;;5086921;28;20269;-69
2023/01/11 06:58:43;;;;;;;22.50;7.38;;;10.50;99.90;;;;;;5071723;28;21008;-69
2023/01/11 07:01:09;;;;;;;23.58;7.18;;;10.50;99.90;;;;;;5077732;28;20122;-70
2023/01/11 07:03:35;;;;;;;22.27;6.88;;;10.40;99.90;;;;;;5082284;28;20044;-70
2023/01/11 07:06:01;;;;;;;23.60;6.45;;;10.40;99.90;;;;;;5076815;28;20070;-70
2023/01/11 07:08:27;;;;;;;24.52;5.78;;;10.40;99.90;;;;;;5087570;28;20055;-69
2023/01/11 07:10:53;;;;;;;24.00;6.25;;;10.40;99.90;;;;;;5086920;28;20507;-69
2023/01/11 07:13:19;;;;;;;21.73;5.60;;;10.30;99.90;;;;;;5085252;28;20071;-69
2023/01/11 07:15:48;;;;;;;23.60;5.82;;;10.30;99.90;;;;;;5081601;28;20188;-69
2023/01/11 07:18:15;;;;;;;21.80;5.68;;;10.40;99.90;;;;;;5079636;28;20035;-69
2023/01/11 07:20:40;;;;;;;30.00;6.07;;;10.40;99.90;;;;;;5086590;28;20044;-69
2023/01/11 07:23:06;;;;;;;27.67;5.82;;;10.40;99.90;;;;;;5106525;28;20042;-69
2023/01/11 07:25:32;;;;;;;21.10;5.68;;;10.30;99.90;;;;;;5089655;28;20161;-70
2023/01/11 07:28:00;;;;;;;24.83;5.30;;;10.30;99.90;;;;;;5079364;28;20139;-68
2023/01/11 07:30:29;;;;;;;24.52;5.13;;;10.30;99.90;;;;;;5091692;28;20051;-70
2023/01/11 07:32:57;;;;;;;24.70;5.80;;;10.30;99.90;;;;;;5084517;28;20048;-70
2023/01/11 07:35:23;;;;;;;24.98;5.85;;;10.30;99.90;;;;;;5087673;28;20036;-70
2023/01/11 07:37:49;;;;;;;26.73;5.88;;;10.30;99.90;;;;;;5082956;28;20115;-70
2023/01/11 07:40:16;;;;;;;22.77;5.40;;;10.20;99.90;;;;;;5089436;28;20524;-70
2023/01/11 07:45:35;;;;;;;23.85;5.47;;;10.20;99.90;;;;;;5108058;28;20048;-70
2023/01/11 07:48:03;;;;;;;22.40;6.05;;;10.20;99.90;;;;;;5081106;28;20093;-70
2023/01/11 07:50:29;;;;;;;25.83;5.50;;;10.20;99.90;;;;;;5078022;28;20063;-70
2023/01/11 07:52:55;;;;;;;26.33;5.75;;;10.20;99.90;;;;;;5080636;28;20076;-70
2023/01/11 07:55:21;;;;;;;25.52;5.78;;;10.20;99.90;;;;;;5086447;28;20052;-70
2023/01/11 07:57:46;;;;;;;28.50;5.60;;;10.20;99.90;;;;;;5090455;28;20032;-70
2023/01/11 08:00:13;;;;;;;22.60;5.40;;;10.20;99.90;;;;;;5103789;27;20054;-70
2023/01/11 08:02:39;;;;;;;23.83;5.70;;;10.20;99.90;;;;;;5085847;28;20044;-70
2023/01/11 08:05:05;;;;;;;24.38;5.82;;;10.20;99.90;;;;;;5092129;28;20043;-70
2023/01/11 08:07:31;;;;;;;23.85;5.70;;;10.20;99.90;;;;;;5086814;27;20051;-70
2023/01/11 08:09:56;;;;;;;28.73;5.95;;;10.20;99.90;;;;;;5095546;28;20040;-70
2023/01/11 08:15:09;;;;;;;20.27;5.22;;;10.30;99.90;;;;;;5097971;28;20055;-70
2023/01/11 08:17:35;;;;;;;22.27;5.60;;;10.30;99.90;;;;;;5096665;28;20047;-70
2023/01/11 08:20:01;;;;;;;21.08;5.80;;;10.30;99.90;;;;;;5090768;28;20033;-70
2023/01/11 08:22:27;;;;;;;27.02;5.90;;;10.30;99.90;;;;;;5092222;28;20055;-70
2023/01/11 08:24:53;;;;;;;22.80;5.63;;;10.30;99.90;;;;;;5092644;28;20035;-70
2023/01/11 08:27:19;;;;;;;24.63;5.53;;;10.30;99.90;;;;;;5092207;28;20043;-72
2023/01/11 08:29:45;;;;;;;20.17;5.22;;;10.30;99.90;;;;;;5087174;28;20028;-71
2023/01/11 08:32:12;;;;;;;21.35;5.38;;;10.30;99.90;;;;;;5090007;28;20057;-69
2023/01/11 08:34:38;;;;;;;22.43;4.73;;;10.30;99.90;;;;;;5088230;28;20040;-70
2023/01/11 08:37:04;;;;;;;20.35;4.18;;;10.30;99.90;;;;;;5089404;28;20032;-71
2023/01/11 08:39:31;;;;;;;18.38;3.97;;;10.30;99.90;;;;;;5084805;28;20409;-72
2023/01/11 08:41:57;;;;;;;17.17;3.50;;;10.20;99.90;;;;;;5086008;28;20478;-72
2023/01/11 08:44:23;;;;;;;15.93;3.53;;;10.30;99.90;;;;;;5091341;28;20055;-72
2023/01/11 08:46:48;;;;;;;15.80;3.55;;;10.20;99.90;;;;;;5086761;28;20044;-71
2023/01/11 08:49:14;;;;;;;17.10;3.30;;;10.20;99.90;;;;;;5087392;28;20047;-71
2023/01/11 08:51:40;;;;;;;18.02;3.90;;;10.20;99.90;;;;;;5092258;28;20044;-72
2023/01/11 08:54:10;;;;;;;15.90;3.15;;;10.10;99.90;;;;;;5088677;28;20063;-72
2023/01/11 08:56:36;;;;;;;13.88;2.80;;;10.10;99.90;;;;;;5107608;28;20861;-72
2023/01/11 08:59:03;;;;;;;17.85;3.47;;;10.10;99.90;;;;;;5089410;28;20052;-72
2023/01/11 09:01:29;;;;;;;17.08;3.03;;;10.10;99.90;;;;;;5085150;28;20066;-72
2023/01/11 09:03:55;;;;;;;14.60;3.10;;;10.00;99.90;;;;;;5087202;28;20416;-72
2023/01/11 09:06:21;;;;;;;14.55;3.08;;;10.00;99.90;;;;;;5086694;28;20060;-72
2023/01/11 09:08:47;;;;;;;11.05;2.63;;;10.00;99.90;;;;;;5089006;28;20040;-70
2023/01/11 09:13:57;;;;;;;17.63;3.42;;;10.00;99.90;;;;;;5088365;28;20040;-71
2023/01/11 09:16:23;;;;;;;13.13;2.58;;;10.00;99.90;;;;;;5093525;28;20047;-68
2023/01/11 09:18:49;;;;;;;19.95;3.47;;;9.90;99.90;;;;;;5090496;28;20032;-71
2023/01/11 09:21:15;;;;;;;16.15;3.28;;;9.90;99.90;;;;;;5090361;28;20368;-72
2023/01/11 09:23:43;;;;;;;15.77;3.20;;;9.90;99.90;;;;;;5093863;28;20050;-71
2023/01/11 09:26:10;;;;;;;13.88;3.17;;;10.00;99.90;;;;;;5099821;28;20087;-72
2023/01/11 09:28:36;;;;;;;13.80;3.70;;;9.90;99.90;;;;;;5099446;28;20122;-73
2023/01/11 09:31:01;;;;;;;18.45;3.45;;;9.90;99.90;;;;;;5105621;28;20589;-72
2023/01/11 09:33:27;;;;;;;18.10;4.07;;;9.90;99.90;;;;;;5089435;28;20051;-71
2023/01/11 09:35:55;;;;;;;19.23;4.38;;;10.00;99.90;;;;;;5089049;28;20039;-73
2023/01/11 09:38:27;;;;;;;17.20;4.43;;;9.90;99.90;;;;;;5102076;28;20114;-74
2023/01/11 09:41:03;;;;;;;18.00;4.07;;;9.90;99.90;;;;;;5106039;27;20475;-74
2023/01/11 09:43:29;;;;;;;22.73;4.82;;;9.90;99.90;;;;;;5086799;28;20173;-73
2023/01/11 09:46:03;;;;;;;23.02;4.45;;;9.90;99.90;;;;;;5110990;28;20044;-74
2023/01/11 09:48:40;;;;;;;18.55;4.30;;;9.90;99.90;;;;;;5103770;28;20122;-75
2023/01/11 09:51:11;;;;;;;17.38;3.95;;;9.90;99.90;;;;;;5094679;28;20063;-75
2023/01/11 09:53:37;;;;;;;16.65;3.85;;;9.90;99.90;;;;;;5090879;28;20048;-72
2023/01/11 09:56:10;;;;;;;13.23;3.75;;;9.80;99.90;;;;;;5092785;28;20892;-74
2023/01/11 09:59:18;;;;;;;21.45;4.47;;;9.80;99.90;;;;;;5083544;28;20043;-70
2023/01/11 10:01:56;;;;;;;18.70;3.80;;;9.80;99.90;;;;;;5096994;28;20096;-70
2023/01/11 10:04:40;;;;;;;19.80;3.85;;;9.80;99.90;;;;;;5108940;28;20087;-70
2023/01/11 10:07:41;;;;;;;20.25;4.00;;;9.80;99.90;;;;;;5109642;28;20130;-70
2023/01/11 10:10:30;;;;;;;17.45;3.90;;;9.80;99.90;;;;;;5077210;28;20502;-70
2023/01/11 10:13:04;;;;;;;16.48;3.83;;;9.80;99.90;;;;;;5089817;28;20047;-70
2023/01/11 10:16:07;;;;;;;19.80;5.05;;;9.80;99.90;;;;;;5103119;28;20048;-70
2023/01/11 10:18:44;;;;;;;16.95;4.32;;;9.80;99.90;;;;;;5109118;27;20551;-70
2023/01/11 10:21:28;;;;;;;16.75;4.20;;;9.70;99.90;;;;;;5111079;28;20115;-70
2023/01/11 10:24:10;;;;;;;23.20;4.10;;;9.80;99.90;;;;;;5097776;28;20077;-70
2023/01/11 10:26:41;;;;;;;19.85;4.35;;;9.80;99.90;;;;;;5088029;28;20043;-71
2023/01/11 10:29:37;;;;;;;18.27;3.90;;;9.80;99.90;;;;;;5073568;28;20048;-71
2023/01/11 10:35:16;;;;;;;20.17;4.60;;;9.70;99.90;;;;;;5083274;28;20068;-73
2023/01/11 10:37:58;;;;;;;22.10;4.38;;;9.80;99.90;;;;;;5079617;28;20036;-73
2023/01/11 10:41:14;;;;;;;20.70;5.15;;;9.80;99.90;;;;;;5084155;28;20040;-73
2023/01/11 10:43:29;;;;;;;17.10;4.32;;;9.70;99.90;;;;;;5094990;28;20052;-73
2023/01/11 10:46:04;;;;;;;20.63;4.80;;;9.70;99.90;;;;;;5099603;28;20119;-75
2023/01/11 10:48:41;;;;;;;17.83;4.40;;;9.80;99.90;;;;;;5095141;28;20398;-75
2023/01/11 10:51:16;;;;;;;20.48;5.00;;;9.70;99.90;;;;;;5088035;28;20042;-74
2023/01/11 10:53:53;;;;;;;26.67;4.60;;;9.70;99.90;;;;;;5101352;28;20051;-72
2023/01/11 10:56:38;;;;;;;19.70;4.40;;;9.80;99.90;;;;;;5080160;28;20125;-73
2023/01/11 10:59:17;;;;;;;20.77;4.70;;;9.80;99.90;;;;;;5084190;28;20044;-72
2023/01/11 11:02:13;;;;;;;20.85;4.88;;;9.80;99.90;;;;;;5088568;28;20051;-74
2023/01/11 11:04:48;;;;;;;17.65;5.07;;;9.90;99.90;;;;;;5082681;28;20043;-73
2023/01/11 11:07:33;;;;;;;18.27;4.45;;;9.90;99.90;;;;;;5089003;28;20056;-72
2023/01/11 11:10:55;;;;;;;21.40;4.65;;;9.90;99.90;;;;;;5097198;28;20039;-73
2023/01/11 11:13:36;;;;;;;17.85;4.63;;;9.90;99.90;;;;;;5085936;28;20089;-74
2023/01/11 11:16:33;;;;;;;16.92;4.50;;;9.90;99.90;;;;;;5102444;28;20060;-76
2023/01/11 11:18:58;;;;;;;17.65;4.80;;;9.90;99.90;;;;;;5083683;28;20631;-74
2023/01/11 11:21:36;;;;;;;21.52;4.82;;;10.00;99.90;;;;;;5100339;28;20043;-74
2023/01/11 11:24:08;;;;;;;;;;;10.00;99.90;;;;;;5103001;28;20044;-74
2023/01/11 11:26:37;;;;;;;24.75;5.32;;;10.00;99.90;;;;;;5105175;28;20459;-72
2023/01/11 11:29:06;;;;;;;20.88;5.82;;;10.10;99.90;;;;;;5080123;28;20040;-73
2023/01/11 11:31:36;;;;;;;17.08;4.72;;;10.10;99.90;;;;;;5082597;28;20054;-73
2023/01/11 11:34:14;;;;;;;20.65;5.07;;;10.10;99.90;;;;;;5108023;28;20592;-74
2023/01/11 11:36:42;;;;;;;21.98;5.70;;;10.10;99.90;;;;;;5089468;28;20063;-73
2023/01/11 11:39:07;;;;;;;;;;;10.10;99.90;;;;;;5084790;28;20044;-71
2023/01/11 11:41:46;;;;;;;18.90;5.80;;;10.10;99.90;;;;;;5088326;28;19923;-72
2023/01/11 11:44:18;;;;;;;21.05;5.88;;;10.00;99.90;;;;;;5078596;28;20059;-76
2023/01/11 11:47:14;;;;;;;27.05;5.43;;;10.00;99.90;;;;;;5084403;28;20083;-71
2023/01/11 11:52:16;;;;;;;23.42;4.80;;;10.00;99.90;;;;;;5081618;22;20060;-70
2023/01/11 11:54:51;;;;;;;19.45;4.53;;;10.00;99.90;;;;;;5043941;28;20063;-69
2023/01/11 11:57:33;;;;;;;17.83;4.97;;;10.10;99.90;;;;;;5064661;28;20132;-71
2023/01/11 12:00:04;;;;;;;19.30;4.43;;;10.10;99.90;;;;;;5056638;28;20510;-71
2023/01/11 12:02:33;;;;;;;19.05;4.90;;;10.20;99.90;;;;;;5065234;28;20902;-72
2023/01/11 12:05:04;;;;;;;19.73;4.22;;;10.20;99.90;;;;;;5066784;28;20056;-72
2023/01/11 12:07:35;;;;;;;20.08;4.40;;;10.30;99.90;;;;;;5059304;28;20041;-71
2023/01/11 12:10:15;;;;;;;23.48;4.95;;;10.30;99.90;;;;;;5067772;28;20075;-71
2023/01/11 12:12:55;;;;;;;22.50;4.65;;;10.40;99.90;;;;;;5049285;28;20123;-71
2023/01/11 12:15:23;;;;;;;17.85;3.85;;;10.50;99.90;;;;;;5066187;28;20044;-71
2023/01/11 12:17:49;;;;;;;16.30;4.25;;;10.60;99.90;;;;;;5061845;28;20393;-70
2023/01/11 12:20:20;;;;;;;19.38;3.75;;;10.60;99.90;;;;;;5047211;28;20045;-70
2023/01/11 12:22:47;;;;;;;23.55;4.75;;;10.50;99.90;;;;;;5068001;28;20478;-70
2023/01/11 12:25:12;;;;;;;19.52;4.00;;;10.50;99.90;;;;;;5062293;28;20044;-70
2023/01/11 12:28:04;;;;;;;19.67;4.35;;;10.50;99.90;;;;;;5038038;28;20106;-71
2023/01/11 12:30:57;;;;;;;18.45;3.97;;;10.50;99.90;;;;;;5049980;28;20467;-72
2023/01/11 12:34:06;;;;;;;19.25;4.10;;;10.50;99.90;;;;;;5061063;28;20052;-72
2023/01/11 12:36:43;;;;;;;16.73;3.65;;;10.50;99.90;;;;;;4986515;28;20125;-73
2023/01/11 12:39:08;;;;;;;;;;;10.50;99.90;;;;;;4964662;28;20038;-73
2023/01/11 12:41:58;;;;;;;20.65;3.55;;;10.40;99.90;;;;;;5010297;28;19927;-73
2023/01/11 12:44:24;;;;;;;15.43;3.83;;;10.40;99.90;;;;;;5053822;28;20045;-73
2023/01/11 12:47:08;;;;;;;17.48;3.58;;;10.40;99.90;;;;;;5053118;28;20102;-73
2023/01/11 12:50:20;;;;;;;18.48;4.40;;;10.50;99.90;;;;;;5044661;28;20094;-74
2023/01/11 12:53:13;;;;;;;17.88;3.80;;;10.50;99.90;;;;;;5043610;28;20057;-76
2023/01/11 12:55:57;;;;;;;23.30;4.53;;;10.60;99.90;;;;;;5048873;28;20855;-76
2023/01/11 12:58:39;;;;;;;19.13;4.18;;;10.60;99.90;;;;;;5069222;28;20093;-75
2023/01/11 13:01:19;;;;;;;22.35;3.83;;;10.70;99.90;;;;;;5063801;28;20087;-73
2023/01/11 13:04:10;;;;;;;19.45;3.72;;;10.70;99.90;;;;;;5051008;28;20048;-72
2023/01/11 13:07:12;;;;;;;28.02;4.68;;;10.80;99.90;;;;;;5063566;28;20087;-71
2023/01/11 13:10:11;;;;;;;16.85;3.80;;;10.80;99.90;;;;;;5030661;28;20045;-71
2023/01/11 13:12:44;;;;;;;22.73;4.05;;;10.80;99.90;;;;;;5048291;28;20451;-71
2023/01/11 13:15:40;;;;;;;17.67;3.85;;;10.70;99.90;;;;;;5048513;28;20087;-71
2023/01/11 13:18:28;;;;;;;22.58;4.47;;;10.70;99.90;;;;;;5064323;28;20055;-71
2023/01/11 13:20:53;;;;;;;21.63;4.68;;;10.60;99.90;;;;;;5051329;28;20048;-71
2023/01/11 13:23:31;;;;;;;22.48;3.90;;;10.60;99.90;;;;;;5059888;28;20048;-71
2023/01/11 13:26:06;;;;;;;17.77;3.67;;;10.50;99.90;;;;;;5049784;28;20513;-71
2023/01/11 13:28:39;;;;;;;16.92;4.20;;;10.40;99.90;;;;;;5048685;28;20052;-71
2023/01/11 13:31:10;;;;;;;18.55;3.60;;;10.40;99.90;;;;;;5045317;28;20041;-71
2023/01/11 13:33:41;;;;;;;19.88;3.67;;;10.30;99.90;;;;;;5070681;28;20041;-72
2023/01/11 13:36:16;;;;;;;19.75;4.30;;;10.20;99.90;;;;;;5069496;28;20044;-72
2023/01/11 13:38:48;;;;;;;19.77;4.15;;;10.20;99.90;;;;;;5045024;28;20047;-71